createdAt,value
2019-01-31T00:00:14.069Z,3.57
2019-01-31T00:03:05.638Z,3.77
2019-01-31T00:05:51.511Z,4.43
2019-01-31T00:08:45.518Z,5.03
2019-01-31T00:11:45.687Z,6.97
2019-01-31T00:14:38.636Z,9.50
2019-01-31T00:17:42.313Z,9.37
2019-01-31T00:20:33.255Z,10.83
2019-01-31T00:23:50.031Z,11.90
2019-01-31T00:26:39.786Z,7.13
2019-01-31T00:29:48.807Z,6.50
2019-01-31T00:32:34.599Z,6.40
2019-01-31T00:35:22.620Z,8.03
2019-01-31T00:38:35.948Z,6.63
2019-01-31T00:41:13.707Z,4.13
2019-01-31T00:43:49.644Z,5.60
2019-01-31T00:46:44.372Z,6.77
2019-01-31T00:49:31.395Z,5.67
2019-01-31T00:52:15.069Z,6.13
2019-01-31T00:55:15.309Z,6.73
2019-01-31T00:58:06.767Z,6.37
2019-01-31T01:00:56.938Z,5.40
2019-01-31T01:04:09.456Z,4.80
2019-01-31T01:07:10.327Z,5.93
2019-01-31T01:10:19.773Z,4.43
2019-01-31T01:13:09.210Z,4.90
2019-01-31T01:16:14.957Z,6.50
2019-01-31T01:18:54.275Z,5.90
2019-01-31T01:22:15.482Z,6.37
2019-01-31T01:25:07.515Z,5.93
2019-01-31T01:28:27.044Z,5.40
2019-01-31T01:31:19.902Z,5.83
2019-01-31T01:34:16.621Z,5.70
2019-01-31T01:37:00.747Z,6.53
2019-01-31T01:40:13.238Z,4.13
2019-01-31T01:43:11.824Z,4.70
2019-01-31T01:46:15.632Z,5.13
2019-01-31T01:49:09.501Z,5.97
2019-01-31T01:52:00.984Z,8.53
2019-01-31T01:54:53.422Z,4.70
2019-01-31T01:57:33.344Z,5.17
2019-01-31T02:00:37.110Z,8.50
2019-01-31T02:03:59.100Z,6.73
2019-01-31T02:06:55.952Z,6.27
2019-01-31T02:09:55.602Z,8.20
2019-01-31T02:12:52.207Z,7.70
2019-01-31T02:16:13.901Z,8.33
2019-01-31T02:19:14.120Z,9.27
2019-01-31T02:22:11.275Z,8.57
2019-01-31T02:24:54.528Z,12.20
2019-01-31T02:27:49.127Z,11.03
2019-01-31T02:30:38.620Z,16.13
2019-01-31T02:33:36.629Z,9.87
2019-01-31T02:36:39.928Z,12.57
2019-01-31T02:40:05.241Z,16.83
2019-01-31T02:42:48.010Z,16.90
2019-01-31T02:46:02.371Z,15.67
2019-01-31T02:48:40.472Z,14.07
2019-01-31T02:51:36.048Z,15.70
2019-01-31T02:54:38.762Z,17.03
2019-01-31T02:57:32.376Z,13.63
2019-01-31T03:00:23.692Z,13.07
2019-01-31T03:03:33.958Z,14.83
2019-01-31T03:06:32.664Z,12.33
2019-01-31T03:09:25.120Z,13.83
2019-01-31T03:12:09.471Z,14.50
2019-01-31T03:15:05.459Z,13.83
2019-01-31T03:17:49.155Z,12.57
2019-01-31T03:20:40.011Z,12.80
2019-01-31T03:23:38.295Z,14.00
2019-01-31T03:26:16.905Z,15.37
2019-01-31T03:29:14.007Z,14.77
2019-01-31T03:32:10.055Z,14.97
2019-01-31T03:35:11.115Z,15.40
2019-01-31T03:38:19.610Z,12.53
2019-01-31T03:41:17.723Z,20.80
2019-01-31T03:44:16.003Z,13.77
2019-01-31T03:47:32.292Z,18.70
2019-01-31T03:50:12.313Z,17.90
2019-01-31T03:53:17.110Z,17.90
2019-01-31T03:56:24.793Z,16.27
2019-01-31T03:59:15.517Z,16.03
2019-01-31T04:02:18.812Z,18.20
2019-01-31T04:05:26.592Z,22.20
2019-01-31T04:07:55.230Z,16.40
2019-01-31T04:10:23.824Z,16.47
2019-01-31T04:12:52.471Z,16.43
2019-01-31T04:15:21.049Z,17.90
2019-01-31T04:17:49.861Z,18.57
2019-01-31T04:20:18.476Z,16.70
2019-01-31T04:22:47.225Z,18.03
2019-01-31T04:25:15.859Z,19.17
2019-01-31T04:27:44.579Z,18.83
2019-01-31T04:30:32.489Z,20.70
2019-01-31T04:33:01.168Z,19.47
2019-01-31T04:35:29.828Z,18.77
2019-01-31T04:37:58.414Z,17.60
2019-01-31T04:40:31.384Z,18.50
2019-01-31T04:42:57.288Z,22.77
2019-01-31T04:45:25.941Z,20.90
2019-01-31T04:47:56.469Z,18.70
2019-01-31T04:50:25.089Z,18.40
2019-01-31T04:52:54.018Z,19.40
2019-01-31T04:55:22.606Z,18.07
2019-01-31T04:57:51.219Z,19.23
2019-01-31T05:00:19.959Z,18.63
2019-01-31T05:02:48.767Z,18.57
2019-01-31T05:05:17.444Z,17.10
2019-01-31T05:07:46.097Z,18.97
2019-01-31T05:10:14.739Z,16.97
2019-01-31T05:12:43.402Z,17.47
2019-01-31T05:15:13.387Z,17.30
2019-01-31T05:17:42.085Z,15.63
2019-01-31T05:20:13.627Z,15.07
2019-01-31T05:22:42.291Z,14.90
2019-01-31T05:25:11.939Z,13.50
2019-01-31T05:27:40.585Z,14.60
2019-01-31T05:30:10.404Z,16.07
2019-01-31T05:32:38.997Z,13.07
2019-01-31T05:35:07.938Z,14.13
2019-01-31T05:37:36.598Z,13.93
2019-01-31T05:40:06.427Z,12.77
2019-01-31T05:42:35.048Z,13.87
2019-01-31T05:45:04.020Z,12.47
2019-01-31T05:47:32.965Z,13.93
2019-01-31T05:50:01.633Z,13.20
2019-01-31T05:52:30.209Z,9.90
2019-01-31T05:54:58.780Z,11.47
2019-01-31T05:57:27.365Z,12.07
2019-01-31T05:59:55.951Z,11.30
2019-01-31T06:02:24.572Z,9.73
2019-01-31T06:04:53.912Z,13.27
2019-01-31T06:07:22.713Z,12.33
2019-01-31T06:09:51.361Z,13.57
2019-01-31T06:12:20.288Z,12.83
2019-01-31T06:14:48.986Z,13.27
2019-01-31T06:17:17.616Z,11.80
2019-01-31T06:19:46.297Z,11.10
2019-01-31T06:22:15.174Z,10.20
2019-01-31T06:24:43.796Z,11.63
2019-01-31T06:27:12.371Z,13.57
2019-01-31T06:29:40.973Z,12.00
2019-01-31T06:32:09.567Z,10.90
2019-01-31T06:34:38.161Z,11.07
2019-01-31T06:37:06.776Z,10.10
2019-01-31T06:39:35.345Z,10.40
2019-01-31T06:42:03.981Z,9.63
2019-01-31T06:44:32.552Z,10.17
2019-01-31T06:47:01.132Z,12.43
2019-01-31T06:49:49.089Z,10.43
2019-01-31T06:52:17.704Z,11.80
2019-01-31T06:54:46.332Z,10.87
2019-01-31T06:57:14.969Z,10.30
2019-01-31T06:59:43.560Z,12.67
2019-01-31T07:02:12.140Z,12.33
2019-01-31T07:04:40.747Z,17.60
2019-01-31T07:07:09.319Z,14.90
2019-01-31T07:09:38.191Z,13.63
2019-01-31T07:12:06.766Z,14.10
2019-01-31T07:14:35.342Z,18.07
2019-01-31T07:17:04.048Z,13.83
2019-01-31T07:19:32.696Z,16.33
2019-01-31T07:22:01.293Z,18.07
2019-01-31T07:24:29.858Z,17.67
2019-01-31T07:26:58.418Z,16.10
2019-01-31T07:29:27.026Z,18.50
2019-01-31T07:31:55.630Z,15.37
2019-01-31T07:34:24.235Z,18.53
2019-01-31T07:36:52.796Z,16.97
2019-01-31T07:39:21.382Z,18.57
2019-01-31T07:41:50.069Z,21.47
2019-01-31T07:44:18.732Z,23.73
2019-01-31T07:46:47.402Z,22.97
2019-01-31T07:49:15.974Z,21.87
2019-01-31T07:51:44.569Z,20.97
2019-01-31T07:54:13.160Z,21.37
2019-01-31T07:56:41.731Z,25.23
2019-01-31T07:59:10.309Z,25.70
2019-01-31T08:01:40.863Z,24.47
2019-01-31T08:04:09.208Z,26.67
2019-01-31T08:06:38.097Z,31.67
2019-01-31T08:09:08.691Z,31.27
2019-01-31T08:11:37.259Z,29.07
2019-01-31T08:14:07.359Z,32.27
2019-01-31T08:16:35.934Z,32.23
2019-01-31T08:19:04.592Z,37.23
2019-01-31T08:21:35.617Z,37.33
2019-01-31T08:24:04.194Z,46.00
2019-01-31T08:26:32.803Z,39.90
2019-01-31T08:29:01.379Z,53.10
2019-01-31T08:31:29.975Z,52.53
2019-01-31T08:33:58.564Z,58.30
2019-01-31T08:36:27.139Z,54.13
2019-01-31T08:38:55.787Z,60.63
2019-01-31T08:41:24.376Z,52.30
2019-01-31T08:43:53.297Z,51.23
2019-01-31T08:46:21.896Z,52.40
2019-01-31T08:48:50.568Z,56.70
2019-01-31T08:51:19.152Z,54.53
2019-01-31T08:53:49.886Z,52.87
2019-01-31T08:56:18.707Z,45.70
2019-01-31T08:58:48.374Z,49.67
2019-01-31T09:01:17.002Z,51.53
2019-01-31T09:03:45.586Z,47.30
2019-01-31T09:06:15.114Z,49.17
2019-01-31T09:08:43.823Z,45.90
2019-01-31T09:11:12.399Z,81.47
2019-01-31T09:13:40.967Z,51.97
2019-01-31T09:16:09.548Z,51.47
2019-01-31T09:18:38.139Z,55.23
2019-01-31T09:21:21.420Z,47.80
2019-01-31T09:24:26.591Z,49.17
2019-01-31T09:27:08.539Z,42.60
2019-01-31T09:30:08.589Z,41.53
2019-01-31T09:32:51.358Z,40.17
2019-01-31T09:35:33.456Z,48.83
2019-01-31T09:38:55.619Z,44.03
2019-01-31T09:41:45.940Z,49.30
2019-01-31T09:44:52.964Z,43.97
2019-01-31T09:47:55.592Z,43.97
2019-01-31T09:50:46.238Z,52.20
2019-01-31T09:53:52.922Z,39.60
2019-01-31T09:56:57.223Z,39.47
2019-01-31T09:59:33.710Z,42.07
2019-01-31T10:02:16.919Z,39.03
2019-01-31T10:05:24.184Z,43.67
2019-01-31T10:08:27.972Z,32.03
2019-01-31T10:11:33.350Z,30.57
2019-01-31T10:14:45.814Z,30.23
2019-01-31T10:17:44.481Z,30.93
2019-01-31T10:20:39.542Z,32.30
2019-01-31T10:23:46.178Z,27.63
2019-01-31T10:27:05.228Z,39.23
2019-01-31T10:30:19.753Z,32.10
2019-01-31T10:33:18.322Z,32.50
2019-01-31T10:36:37.563Z,37.30
2019-01-31T10:39:35.724Z,30.47
2019-01-31T10:42:12.877Z,27.80
2019-01-31T10:45:49.454Z,28.93
2019-01-31T10:48:52.261Z,30.17
2019-01-31T10:51:58.526Z,27.93
2019-01-31T10:54:52.849Z,29.97
2019-01-31T10:57:58.032Z,25.50
2019-01-31T11:00:59.769Z,24.67
2019-01-31T11:04:18.857Z,25.43
2019-01-31T11:07:37.893Z,28.67
2019-01-31T11:10:44.712Z,35.33
2019-01-31T11:13:49.028Z,34.23
2019-01-31T11:16:45.341Z,35.00
2019-01-31T11:19:51.171Z,30.20
2019-01-31T11:22:59.297Z,27.43
2019-01-31T11:26:10.329Z,29.43
2019-01-31T11:28:52.216Z,38.67
2019-01-31T11:31:53.448Z,25.93
2019-01-31T11:34:39.347Z,25.70
2019-01-31T11:37:26.348Z,24.40
2019-01-31T11:40:16.410Z,26.37
2019-01-31T11:43:11.842Z,28.63
2019-01-31T11:45:57.807Z,26.57
2019-01-31T11:48:51.674Z,28.50
2019-01-31T11:51:59.676Z,35.00
2019-01-31T11:55:08.302Z,36.47
2019-01-31T11:57:58.136Z,42.87
2019-01-31T12:00:27.401Z,43.40
2019-01-31T12:02:55.996Z,49.67
2019-01-31T12:05:24.880Z,43.90
2019-01-31T12:07:53.477Z,43.90
2019-01-31T12:10:22.127Z,48.30
2019-01-31T12:12:50.750Z,51.17
2019-01-31T12:15:19.515Z,45.87
2019-01-31T12:17:48.376Z,50.00
2019-01-31T12:20:16.957Z,46.63
2019-01-31T12:22:45.547Z,42.93
2019-01-31T12:25:14.192Z,40.63
2019-01-31T12:27:42.885Z,36.23
2019-01-31T12:30:20.635Z,37.27
2019-01-31T12:32:50.104Z,37.50
2019-01-31T12:35:18.691Z,33.73
2019-01-31T12:38:06.599Z,33.10
2019-01-31T12:40:35.196Z,34.50
2019-01-31T12:43:03.787Z,30.50
2019-01-31T12:45:32.412Z,32.33
2019-01-31T12:48:01.022Z,32.43
2019-01-31T12:50:29.800Z,31.43
2019-01-31T12:52:58.362Z,29.87
2019-01-31T12:55:26.968Z,34.93
2019-01-31T12:57:55.549Z,36.20
2019-01-31T13:00:26.324Z,29.53
2019-01-31T13:02:55.027Z,30.03
2019-01-31T13:05:23.629Z,31.20
2019-01-31T13:07:52.213Z,27.63
2019-01-31T13:10:20.796Z,28.07
2019-01-31T13:12:51.414Z,30.93
2019-01-31T13:15:20.007Z,28.97
2019-01-31T13:17:48.755Z,25.73
2019-01-31T13:20:22.092Z,19.70
2019-01-31T13:22:52.730Z,24.77
2019-01-31T13:25:21.843Z,26.33
2019-01-31T13:28:09.791Z,28.27
2019-01-31T13:30:38.417Z,24.97
2019-01-31T13:33:07.410Z,25.83
2019-01-31T13:35:36.177Z,28.07
2019-01-31T13:38:04.745Z,27.07
2019-01-31T13:40:33.375Z,29.03
2019-01-31T13:43:02.224Z,32.63
2019-01-31T13:45:33.192Z,31.53
2019-01-31T13:48:04.599Z,33.57
2019-01-31T13:50:33.264Z,34.23
2019-01-31T13:53:01.853Z,38.07
2019-01-31T13:55:30.773Z,31.17
2019-01-31T13:57:59.430Z,32.80
2019-01-31T14:00:28.013Z,45.33
2019-01-31T14:02:56.639Z,30.03
2019-01-31T14:05:26.127Z,34.47
2019-01-31T14:07:55.017Z,29.67
2019-01-31T14:10:24.402Z,27.67
2019-01-31T14:12:52.987Z,37.80
2019-01-31T14:15:33.626Z,37.83
2019-01-31T14:17:57.236Z,31.13
2019-01-31T14:20:27.018Z,36.80
2019-01-31T14:22:55.601Z,35.70
2019-01-31T14:25:24.210Z,37.10
2019-01-31T14:27:52.872Z,33.27
2019-01-31T14:30:24.415Z,29.70
2019-01-31T14:32:53.373Z,31.30
2019-01-31T14:35:22.003Z,31.80
2019-01-31T14:37:50.710Z,25.23
2019-01-31T14:40:19.282Z,32.83
2019-01-31T14:42:50.772Z,33.30
2019-01-31T14:45:19.380Z,31.17
2019-01-31T14:47:48.259Z,25.43
2019-01-31T14:50:26.317Z,27.80
2019-01-31T14:52:56.928Z,24.20
2019-01-31T14:55:25.212Z,23.30
2019-01-31T14:57:53.792Z,24.33
2019-01-31T15:00:24.616Z,20.17
2019-01-31T15:02:53.187Z,24.00
2019-01-31T15:05:21.761Z,20.60
2019-01-31T15:07:50.343Z,24.43
2019-01-31T15:10:21.099Z,23.00
2019-01-31T15:12:49.681Z,20.10
2019-01-31T15:15:18.305Z,21.53
2019-01-31T15:17:52.919Z,21.57
2019-01-31T15:20:37.543Z,24.10
2019-01-31T15:22:59.045Z,30.43
2019-01-31T15:25:27.619Z,25.93
2019-01-31T15:27:56.293Z,24.97
2019-01-31T15:30:27.669Z,27.57
2019-01-31T15:32:56.255Z,29.83
2019-01-31T15:35:24.838Z,30.83
2019-01-31T15:37:53.394Z,29.37
2019-01-31T15:40:24.435Z,30.07
2019-01-31T15:42:53.030Z,27.63
2019-01-31T15:45:21.657Z,28.53
2019-01-31T15:47:50.295Z,25.97
2019-01-31T15:50:18.970Z,32.50
2019-01-31T15:52:47.859Z,33.80
2019-01-31T15:55:17.493Z,28.73
2019-01-31T15:57:46.232Z,36.87
2019-01-31T16:00:29.601Z,27.83
2019-01-31T16:02:58.183Z,30.73
2019-01-31T16:05:27.053Z,29.37
2019-01-31T16:07:55.748Z,31.30
2019-01-31T16:10:24.397Z,32.47
2019-01-31T16:12:52.988Z,33.03
2019-01-31T16:15:21.613Z,33.60
2019-01-31T16:17:52.389Z,32.23
2019-01-31T16:20:20.579Z,31.73
2019-01-31T16:22:49.376Z,33.83
2019-01-31T16:25:18.232Z,33.63
2019-01-31T16:27:46.977Z,33.33
2019-01-31T16:30:15.916Z,29.00
2019-01-31T16:32:44.720Z,31.57
2019-01-31T16:35:14.075Z,25.23
2019-01-31T16:37:42.747Z,25.87
2019-01-31T16:40:12.901Z,31.13
2019-01-31T16:42:41.535Z,26.43
2019-01-31T16:45:11.598Z,28.17
2019-01-31T16:47:40.182Z,23.77
2019-01-31T16:50:11.648Z,26.57
2019-01-31T16:52:40.233Z,25.27
2019-01-31T16:55:10.880Z,24.07
2019-01-31T16:57:39.526Z,29.20
2019-01-31T17:00:11.727Z,25.63
2019-01-31T17:02:40.303Z,24.53
2019-01-31T17:05:10.961Z,21.13
2019-01-31T17:07:39.518Z,24.47
2019-01-31T17:10:08.451Z,23.07
2019-01-31T17:12:37.060Z,27.30
2019-01-31T17:15:06.024Z,28.93
2019-01-31T17:17:34.603Z,28.47
2019-01-31T17:20:03.202Z,26.33
2019-01-31T17:22:31.833Z,26.13
2019-01-31T17:25:00.426Z,24.93
2019-01-31T17:27:28.999Z,31.17
2019-01-31T17:29:57.569Z,33.10
2019-01-31T17:32:26.183Z,34.27
2019-01-31T17:34:54.743Z,34.77
2019-01-31T17:37:23.335Z,34.73
2019-01-31T17:39:51.936Z,35.67
2019-01-31T17:42:20.509Z,44.15
2019-01-31T17:44:49.470Z,36.87
2019-01-31T17:47:18.144Z,36.50
2019-01-31T17:49:48.640Z,41.30
2019-01-31T17:52:17.452Z,40.07
2019-01-31T17:54:46.121Z,41.83
2019-01-31T17:57:14.788Z,39.90
2019-01-31T17:59:43.428Z,37.40
2019-01-31T18:02:11.999Z,40.13
2019-01-31T18:04:40.584Z,31.40
2019-01-31T18:07:09.163Z,37.97
2019-01-31T18:09:37.743Z,32.57
2019-01-31T18:12:06.336Z,35.30
2019-01-31T18:14:34.909Z,31.33
2019-01-31T18:17:03.492Z,31.70
2019-01-31T18:19:32.192Z,38.77
2019-01-31T18:22:00.762Z,32.30
2019-01-31T18:24:29.364Z,33.00
2019-01-31T18:26:57.928Z,34.60
2019-01-31T18:29:26.820Z,34.60
2019-01-31T18:31:55.715Z,34.57
2019-01-31T18:34:24.304Z,37.27
2019-01-31T18:36:52.888Z,35.30
2019-01-31T18:39:21.455Z,35.67
2019-01-31T18:41:50.494Z,36.50
2019-01-31T18:44:19.118Z,33.73
2019-01-31T18:46:47.991Z,36.03
2019-01-31T18:49:16.572Z,39.50
2019-01-31T18:51:45.170Z,34.40
2019-01-31T18:54:19.017Z,32.10
2019-01-31T18:56:50.655Z,29.57
2019-01-31T18:59:19.235Z,30.33
2019-01-31T19:01:48.025Z,33.13
2019-01-31T19:04:16.601Z,33.83
2019-01-31T19:06:45.428Z,32.80
2019-01-31T19:09:14.006Z,34.77
2019-01-31T19:11:42.555Z,34.47
2019-01-31T19:14:11.144Z,34.47
2019-01-31T19:16:39.712Z,31.53
2019-01-31T19:19:08.273Z,32.40
2019-01-31T19:21:37.126Z,33.37
2019-01-31T19:24:05.698Z,35.83
2019-01-31T19:26:34.272Z,33.87
2019-01-31T19:29:02.823Z,29.23
2019-01-31T19:31:31.411Z,30.07
2019-01-31T19:34:00.117Z,34.13
2019-01-31T19:36:30.953Z,33.50
2019-01-31T19:38:58.995Z,35.60
2019-01-31T19:41:27.571Z,33.97
2019-01-31T19:43:56.139Z,28.77
2019-01-31T19:46:24.720Z,31.07
2019-01-31T19:48:53.279Z,32.17
2019-01-31T19:51:21.852Z,31.63
2019-01-31T19:53:50.465Z,31.50
2019-01-31T19:56:19.045Z,31.23
2019-01-31T19:58:47.859Z,38.00
2019-01-31T20:01:16.456Z,31.17
2019-01-31T20:03:45.084Z,40.10
2019-01-31T20:06:13.663Z,36.90
2019-01-31T20:08:42.265Z,35.50
2019-01-31T20:11:10.832Z,37.03
2019-01-31T20:13:39.384Z,35.17
2019-01-31T20:16:07.957Z,29.57
2019-01-31T20:18:36.507Z,36.27
2019-01-31T20:21:05.513Z,33.33
2019-01-31T20:23:34.199Z,35.73
2019-01-31T20:26:02.779Z,33.03
2019-01-31T20:28:31.351Z,32.37
2019-01-31T20:30:59.924Z,31.83
2019-01-31T20:33:28.495Z,30.63
2019-01-31T20:35:57.073Z,31.47
2019-01-31T20:38:25.659Z,31.13
2019-01-31T20:40:54.290Z,33.60
2019-01-31T20:43:23.252Z,32.10
2019-01-31T20:45:51.828Z,35.23
2019-01-31T20:48:20.517Z,25.93
2019-01-31T20:50:49.295Z,31.43
2019-01-31T20:53:17.883Z,29.60
2019-01-31T20:55:47.884Z,29.23
2019-01-31T20:58:16.475Z,31.73
2019-01-31T21:00:46.532Z,28.63
2019-01-31T21:03:15.101Z,30.67
2019-01-31T21:05:43.827Z,33.27
2019-01-31T21:08:13.940Z,36.43
2019-01-31T21:10:42.620Z,38.03
2019-01-31T21:13:11.186Z,37.87
2019-01-31T21:15:40.136Z,36.87
2019-01-31T21:18:08.919Z,26.97
2019-01-31T21:20:37.497Z,37.00
2019-01-31T21:23:06.682Z,39.80
2019-01-31T21:25:35.320Z,41.17
2019-01-31T21:28:03.914Z,38.33
2019-01-31T21:30:37.378Z,43.70
2019-01-31T21:33:06.171Z,41.63
2019-01-31T21:35:34.837Z,41.20
2019-01-31T21:38:03.522Z,43.73
2019-01-31T21:40:33.926Z,43.37
2019-01-31T21:43:02.565Z,45.87
2019-01-31T21:45:31.126Z,45.67
2019-01-31T21:47:59.691Z,45.17
2019-01-31T21:50:28.787Z,46.70
2019-01-31T21:52:57.457Z,50.20
2019-01-31T21:55:26.040Z,51.07
2019-01-31T21:57:54.725Z,48.23
2019-01-31T22:00:25.611Z,51.50
2019-01-31T22:02:54.191Z,51.03
2019-01-31T22:05:22.740Z,45.13
2019-01-31T22:07:51.325Z,49.50
2019-01-31T22:10:19.933Z,46.40
2019-01-31T22:12:48.744Z,50.20
2019-01-31T22:15:25.452Z,45.80
2019-01-31T22:17:57.138Z,47.03
2019-01-31T22:20:24.550Z,45.70
2019-01-31T22:22:53.137Z,50.27
2019-01-31T22:25:22.403Z,42.77
2019-01-31T22:27:50.963Z,47.63
2019-01-31T22:30:27.601Z,44.13
2019-01-31T22:32:56.230Z,44.30
2019-01-31T22:35:24.799Z,46.33
2019-01-31T22:37:53.449Z,46.77
2019-01-31T22:40:22.306Z,45.83
2019-01-31T22:42:50.879Z,46.47
2019-01-31T22:45:20.745Z,46.90
2019-01-31T22:47:49.454Z,42.13
2019-01-31T22:50:19.383Z,42.00
2019-01-31T22:52:48.166Z,42.80
2019-01-31T22:55:18.276Z,44.30
2019-01-31T22:57:47.019Z,37.13
2019-01-31T23:00:29.711Z,41.70
2019-01-31T23:02:58.314Z,43.47
2019-01-31T23:05:27.126Z,45.00
2019-01-31T23:07:55.711Z,42.40
2019-01-31T23:10:24.319Z,41.10
2019-01-31T23:12:52.902Z,42.93
2019-01-31T23:15:21.456Z,41.83
2019-01-31T23:17:50.049Z,42.63
2019-01-31T23:20:18.620Z,42.10
2019-01-31T23:22:47.403Z,43.97
2019-01-31T23:25:16.356Z,43.20
2019-01-31T23:27:44.935Z,41.07
2019-01-31T23:30:13.582Z,41.90
2019-01-31T23:32:42.431Z,36.10
2019-01-31T23:35:11.014Z,42.13
2019-01-31T23:37:39.579Z,42.57
2019-01-31T23:40:08.879Z,39.43
2019-01-31T23:42:37.479Z,39.10
2019-01-31T23:45:09.123Z,38.80
2019-01-31T23:47:47.642Z,37.63
2019-01-31T23:50:09.059Z,36.70
2019-01-31T23:52:37.699Z,37.90
2019-01-31T23:55:07.360Z,37.63
2019-01-31T23:57:35.929Z,36.57
